createdAt,value
2018-02-17T00:00:50.297Z,0
2018-02-17T00:02:05.730Z,0
2018-02-17T00:03:20.493Z,0
2018-02-17T00:04:35.768Z,0
2018-02-17T00:05:49.853Z,0
2018-02-17T00:07:04.995Z,0
2018-02-17T00:08:19.747Z,0
2018-02-17T00:09:34.790Z,0
2018-02-17T00:10:49.385Z,0
2018-02-17T00:12:04.666Z,0
2018-02-17T00:13:19.144Z,0
2018-02-17T00:14:33.830Z,0
2018-02-17T00:15:48.908Z,0
2018-02-17T00:17:02.823Z,0
2018-02-17T00:18:17.871Z,0
2018-02-17T00:19:32.673Z,0
2018-02-17T00:20:47.629Z,0
2018-02-17T00:22:02.320Z,0
2018-02-17T00:23:17.327Z,0
2018-02-17T00:24:31.496Z,0
2018-02-17T00:25:45.629Z,0
2018-02-17T00:26:59.808Z,0
2018-02-17T00:28:14.788Z,0
2018-02-17T00:29:29.280Z,0
2018-02-17T00:30:44.304Z,0
2018-02-17T00:31:58.905Z,0
2018-02-17T00:33:13.403Z,0
2018-02-17T00:34:28.501Z,0
2018-02-17T00:35:43.603Z,0
2018-02-17T00:36:58.384Z,0
2018-02-17T00:38:13.134Z,0
2018-02-17T00:39:27.574Z,0
2018-02-17T00:40:42.146Z,0
2018-02-17T00:41:57.164Z,0
2018-02-17T00:43:11.582Z,0
2018-02-17T00:44:28.127Z,0
2018-02-17T00:45:43.345Z,0
2018-02-17T00:46:57.992Z,0
2018-02-17T00:48:12.139Z,0
2018-02-17T00:49:27.428Z,0
2018-02-17T00:50:41.190Z,0
2018-02-17T00:51:54.826Z,0
2018-02-17T00:53:10.042Z,0
2018-02-17T00:54:25.071Z,0
2018-02-17T00:55:40.083Z,0
2018-02-17T00:56:54.678Z,0
2018-02-17T00:58:09.659Z,0
2018-02-17T00:59:24.126Z,0
2018-02-17T01:00:39.670Z,0
2018-02-17T01:01:54.919Z,0
2018-02-17T01:03:09.385Z,0
2018-02-17T01:04:23.584Z,0
2018-02-17T01:05:38.652Z,0
2018-02-17T01:06:53.998Z,0
2018-02-17T01:08:08.731Z,0
2018-02-17T01:09:23.584Z,0
2018-02-17T01:10:37.496Z,0
2018-02-17T01:11:52.195Z,0
2018-02-17T01:13:07.247Z,0
2018-02-17T01:14:22.242Z,0
2018-02-17T01:15:36.749Z,0
2018-02-17T01:16:51.691Z,0
2018-02-17T01:18:06.708Z,0
2018-02-17T01:19:46.866Z,0
2018-02-17T01:21:01.071Z,0
2018-02-17T01:22:15.783Z,0
2018-02-17T01:23:30.799Z,0
2018-02-17T01:24:45.795Z,0
2018-02-17T01:26:00.423Z,0
2018-02-17T01:27:14.505Z,0
2018-02-17T01:28:29.676Z,0
2018-02-17T01:29:44.912Z,0
2018-02-17T01:30:59.574Z,0
2018-02-17T01:32:14.538Z,0
2018-02-17T01:33:29.039Z,0
2018-02-17T01:34:43.964Z,0
2018-02-17T01:35:58.419Z,0
2018-02-17T01:37:13.645Z,0
2018-02-17T01:38:28.578Z,0
2018-02-17T01:39:43.042Z,0
2018-02-17T01:40:57.999Z,0
2018-02-17T01:42:12.442Z,0
2018-02-17T01:43:27.269Z,0
2018-02-17T01:44:41.659Z,0
2018-02-17T01:45:55.839Z,0
2018-02-17T01:47:10.533Z,0
2018-02-17T01:48:24.702Z,0
2018-02-17T01:49:49.378Z,0
2018-02-17T01:51:04.061Z,0
2018-02-17T01:52:18.337Z,0
2018-02-17T01:53:32.745Z,0
2018-02-17T01:54:47.965Z,0
2018-02-17T01:56:02.795Z,0
2018-02-17T01:57:17.301Z,0
2018-02-17T01:58:31.442Z,0
2018-02-17T01:59:45.911Z,0
2018-02-17T02:01:01.150Z,0
2018-02-17T02:02:16.304Z,0
2018-02-17T02:03:30.658Z,0
2018-02-17T02:04:45.420Z,0
2018-02-17T02:06:00.405Z,0
2018-02-17T02:07:14.824Z,0
2018-02-17T02:08:29.825Z,0
2018-02-17T02:09:44.904Z,0
2018-02-17T02:10:59.360Z,0
2018-02-17T02:12:13.474Z,0
2018-02-17T02:13:28.577Z,0
2018-02-17T02:14:43.607Z,0
2018-02-17T02:15:57.476Z,0
2018-02-17T02:17:11.059Z,0
2018-02-17T02:18:25.601Z,0
2018-02-17T02:19:40.237Z,0
2018-02-17T02:20:55.038Z,0
2018-02-17T02:22:10.022Z,0
2018-02-17T02:23:24.541Z,0
2018-02-17T02:24:38.915Z,0
2018-02-17T02:25:53.582Z,0
2018-02-17T02:27:09.090Z,0
2018-02-17T02:28:24.500Z,0
2018-02-17T02:29:38.673Z,0
2018-02-17T02:30:53.657Z,0
2018-02-17T02:32:08.144Z,0
2018-02-17T02:33:23.005Z,0
2018-02-17T02:34:37.173Z,0
2018-02-17T02:35:51.610Z,0
2018-02-17T02:37:05.771Z,0
2018-02-17T02:38:20.531Z,0
2018-02-17T02:39:35.406Z,0
2018-02-17T02:40:49.651Z,0
2018-02-17T02:42:04.016Z,0
2018-02-17T02:43:18.700Z,0
2018-02-17T02:44:33.854Z,0
2018-02-17T02:45:48.917Z,0
2018-02-17T02:47:03.315Z,0
2018-02-17T02:48:17.727Z,0
2018-02-17T02:49:32.866Z,0
2018-02-17T02:50:47.831Z,0
2018-02-17T02:52:02.862Z,0
2018-02-17T02:53:16.982Z,0
2018-02-17T02:54:32.152Z,0
2018-02-17T02:55:46.990Z,0
2018-02-17T02:57:01.372Z,0
2018-02-17T02:58:16.359Z,0
2018-02-17T02:59:31.230Z,0
2018-02-17T03:00:45.627Z,0
2018-02-17T03:02:00.362Z,0
2018-02-17T03:03:15.419Z,0
2018-02-17T03:04:29.902Z,0
2018-02-17T03:05:44.562Z,0
2018-02-17T03:06:59.506Z,0
2018-02-17T03:08:13.929Z,0
2018-02-17T03:09:28.690Z,0
2018-02-17T03:10:43.384Z,0
2018-02-17T03:11:57.763Z,0
2018-02-17T03:13:11.906Z,0
2018-02-17T03:14:26.663Z,0
2018-02-17T03:15:41.057Z,0
2018-02-17T03:16:55.548Z,0
2018-02-17T03:18:09.456Z,0
2018-02-17T03:19:24.198Z,0
2018-02-17T03:20:39.595Z,0
2018-02-17T03:21:54.267Z,0
2018-02-17T03:23:09.501Z,0
2018-02-17T03:24:24.186Z,0
2018-02-17T03:25:38.996Z,0
2018-02-17T03:26:54.540Z,0
2018-02-17T03:28:09.793Z,0
2018-02-17T03:29:25.033Z,0
2018-02-17T03:30:39.785Z,0
2018-02-17T03:31:55.015Z,0
2018-02-17T03:33:10.322Z,0
2018-02-17T03:34:25.004Z,0
2018-02-17T03:35:40.560Z,0
2018-02-17T03:36:55.238Z,0
2018-02-17T03:38:09.893Z,0
2018-02-17T03:39:24.867Z,0
2018-02-17T03:40:39.723Z,0
2018-02-17T03:41:55.200Z,0
2018-02-17T03:43:09.897Z,0
2018-02-17T03:44:24.091Z,0
2018-02-17T03:45:38.510Z,0
2018-02-17T03:46:52.905Z,0
2018-02-17T03:48:07.858Z,0
2018-02-17T03:49:22.311Z,0
2018-02-17T03:50:37.389Z,0
2018-02-17T03:51:52.056Z,0
2018-02-17T03:53:07.011Z,0
2018-02-17T03:54:21.975Z,0
2018-02-17T03:55:36.697Z,0
2018-02-17T03:56:50.563Z,0
2018-02-17T03:58:04.972Z,0
2018-02-17T03:59:19.843Z,0
2018-02-17T04:00:34.869Z,0
2018-02-17T04:01:50.059Z,0
2018-02-17T04:03:05.454Z,0
2018-02-17T04:04:20.379Z,0
2018-02-17T04:05:35.083Z,0
2018-02-17T04:06:50.522Z,0
2018-02-17T04:08:04.975Z,0
2018-02-17T04:09:19.181Z,0
2018-02-17T04:10:33.458Z,0
2018-02-17T04:11:47.892Z,0
2018-02-17T04:13:02.341Z,0
2018-02-17T04:14:17.056Z,0
2018-02-17T04:15:31.985Z,0
2018-02-17T04:16:46.468Z,0
2018-02-17T04:18:01.152Z,0
2018-02-17T04:19:15.871Z,0
2018-02-17T04:20:30.833Z,0
2018-02-17T04:21:46.110Z,0
2018-02-17T04:23:00.881Z,0
2018-02-17T04:24:15.338Z,0
2018-02-17T04:25:30.611Z,0
2018-02-17T04:26:44.805Z,0
2018-02-17T04:27:59.256Z,0
2018-02-17T04:29:13.717Z,0
2018-02-17T04:30:28.127Z,0
2018-02-17T04:31:44.423Z,0
2018-02-17T04:32:58.917Z,0
2018-02-17T04:34:13.620Z,0
2018-02-17T04:35:27.844Z,0
2018-02-17T04:36:42.247Z,0
2018-02-17T04:37:56.961Z,0
2018-02-17T04:39:11.717Z,0
2018-02-17T04:40:26.411Z,0
2018-02-17T04:41:41.153Z,0
2018-02-17T04:42:56.364Z,0
2018-02-17T04:44:11.378Z,0
2018-02-17T04:45:26.024Z,0
2018-02-17T04:46:41.071Z,0
2018-02-17T04:47:55.477Z,0
2018-02-17T04:49:09.629Z,0
2018-02-17T04:50:25.208Z,0
2018-02-17T04:51:40.449Z,0
2018-02-17T04:52:55.409Z,0
2018-02-17T04:54:09.608Z,0
2018-02-17T04:55:23.817Z,0
2018-02-17T04:56:38.543Z,0
2018-02-17T04:57:53.744Z,0
2018-02-17T04:59:08.488Z,0
2018-02-17T05:00:22.904Z,0
2018-02-17T05:01:37.580Z,0
2018-02-17T05:02:52.329Z,0
2018-02-17T05:04:07.242Z,0
2018-02-17T05:05:21.685Z,0
2018-02-17T05:06:36.908Z,0
2018-02-17T05:07:51.218Z,0
2018-02-17T05:09:05.382Z,0
2018-02-17T05:10:20.565Z,0
2018-02-17T05:11:35.512Z,0
2018-02-17T05:12:50.015Z,0
2018-02-17T05:14:04.701Z,0
2018-02-17T05:15:18.845Z,0
2018-02-17T05:16:33.259Z,0
2018-02-17T05:17:48.055Z,0
2018-02-17T05:19:02.438Z,0
2018-02-17T05:20:16.921Z,0
2018-02-17T05:21:32.287Z,0
2018-02-17T05:22:46.462Z,0
2018-02-17T05:24:01.277Z,0
2018-02-17T05:25:15.957Z,0
2018-02-17T05:26:30.060Z,0
2018-02-17T05:27:44.986Z,0
2018-02-17T05:28:59.370Z,0
2018-02-17T05:30:14.308Z,0
2018-02-17T05:31:27.920Z,0
2018-02-17T05:32:42.581Z,0
2018-02-17T05:33:57.225Z,0
2018-02-17T05:35:11.643Z,0
2018-02-17T05:36:26.285Z,0
2018-02-17T05:38:09.842Z,0
2018-02-17T05:39:24.644Z,0
2018-02-17T05:40:39.365Z,0
2018-02-17T05:41:54.555Z,0
2018-02-17T05:43:09.219Z,0
2018-02-17T05:44:24.548Z,0
2018-02-17T05:45:39.450Z,0
2018-02-17T05:46:53.606Z,0
2018-02-17T05:48:08.032Z,0
2018-02-17T05:49:23.405Z,0
2018-02-17T05:50:38.351Z,0
2018-02-17T05:51:52.488Z,0
2018-02-17T05:53:07.180Z,0
2018-02-17T05:54:21.950Z,0
2018-02-17T05:55:36.904Z,0
2018-02-17T05:56:52.140Z,0
2018-02-17T05:58:06.818Z,0
2018-02-17T05:59:21.337Z,0
2018-02-17T06:00:36.279Z,0
2018-02-17T06:01:50.508Z,0
2018-02-17T06:03:05.674Z,0
2018-02-17T06:04:20.143Z,0
2018-02-17T06:05:34.760Z,0
2018-02-17T06:06:49.194Z,0
2018-02-17T06:08:03.917Z,0
2018-02-17T06:09:19.326Z,0
2018-02-17T06:10:33.839Z,0
2018-02-17T06:11:48.052Z,0
2018-02-17T06:13:02.584Z,0
2018-02-17T06:14:16.742Z,0
2018-02-17T06:15:31.097Z,0
2018-02-17T06:16:45.898Z,0
2018-02-17T06:18:00.333Z,0
2018-02-17T06:19:14.786Z,0
2018-02-17T06:20:29.571Z,0
2018-02-17T06:21:44.419Z,0
2018-02-17T06:22:59.177Z,0
2018-02-17T06:24:13.680Z,0
2018-02-17T06:25:27.889Z,0
2018-02-17T06:26:42.582Z,0
2018-02-17T06:27:57.692Z,0
2018-02-17T06:29:12.122Z,0
2018-02-17T06:30:27.112Z,0
2018-02-17T06:31:41.828Z,0
2018-02-17T06:32:56.334Z,0
2018-02-17T06:34:10.850Z,0
2018-02-17T06:35:25.057Z,0
2018-02-17T06:36:40.006Z,0
2018-02-17T06:37:54.259Z,0
2018-02-17T06:39:08.470Z,0
2018-02-17T06:40:23.255Z,0
2018-02-17T06:41:38.146Z,0
2018-02-17T06:42:52.325Z,0
2018-02-17T06:44:07.273Z,0
2018-02-17T06:45:22.257Z,0
2018-02-17T06:46:37.604Z,0
2018-02-17T06:47:52.005Z,0
2018-02-17T06:49:07.002Z,0
2018-02-17T06:50:21.461Z,0
2018-02-17T06:51:36.672Z,0
2018-02-17T06:52:51.405Z,5
2018-02-17T06:54:06.137Z,5
2018-02-17T06:55:20.296Z,5
2018-02-17T06:56:34.664Z,5
2018-02-17T06:57:49.365Z,5
2018-02-17T06:59:04.118Z,5
2018-02-17T07:00:37.750Z,5
2018-02-17T07:01:52.503Z,5
2018-02-17T07:03:07.000Z,10
2018-02-17T07:04:22.271Z,10
2018-02-17T07:05:37.206Z,10
2018-02-17T07:06:51.934Z,10
2018-02-17T07:08:05.864Z,10
2018-02-17T07:09:20.834Z,10
2018-02-17T07:10:35.848Z,10
2018-02-17T07:11:50.335Z,10
2018-02-17T07:13:04.786Z,10
2018-02-17T07:14:18.947Z,15
2018-02-17T07:15:33.407Z,15
2018-02-17T07:16:48.901Z,15
2018-02-17T07:18:03.346Z,15
2018-02-17T07:19:17.841Z,15
2018-02-17T07:20:32.628Z,15
2018-02-17T07:21:47.465Z,15
2018-02-17T07:23:02.444Z,20
2018-02-17T07:24:17.433Z,20
2018-02-17T07:25:31.906Z,20
2018-02-17T07:26:46.948Z,20
2018-02-17T07:28:02.378Z,20
2018-02-17T07:29:17.419Z,20
2018-02-17T07:30:32.179Z,20
2018-02-17T07:31:46.668Z,25
2018-02-17T07:33:01.650Z,25
2018-02-17T07:34:16.628Z,25
2018-02-17T07:35:31.371Z,25
2018-02-17T07:36:46.752Z,25
2018-02-17T07:38:01.260Z,25
2018-02-17T07:39:15.121Z,25
2018-02-17T07:40:30.013Z,25
2018-02-17T07:41:45.304Z,25
2018-02-17T07:43:00.638Z,25
2018-02-17T07:44:15.323Z,25
2018-02-17T07:45:30.009Z,25
2018-02-17T07:46:45.215Z,25
2018-02-17T07:48:00.520Z,30
2018-02-17T07:49:15.418Z,30
2018-02-17T07:50:30.785Z,30
2018-02-17T07:51:45.812Z,30
2018-02-17T07:53:00.186Z,30
2018-02-17T07:54:14.759Z,35
2018-02-17T07:55:29.437Z,35
2018-02-17T07:56:44.505Z,35
2018-02-17T07:57:58.968Z,35
2018-02-17T07:59:14.000Z,40
2018-02-17T08:00:28.926Z,40
2018-02-17T08:01:43.384Z,40
2018-02-17T08:02:58.224Z,40
2018-02-17T08:04:13.491Z,40
2018-02-17T08:05:28.166Z,45
2018-02-17T08:06:43.421Z,45
2018-02-17T08:07:58.445Z,45
2018-02-17T08:09:12.380Z,45
2018-02-17T08:10:26.865Z,45
2018-02-17T08:11:42.113Z,50
2018-02-17T08:12:57.140Z,50
2018-02-17T08:14:11.590Z,50
2018-02-17T08:15:25.732Z,50
2018-02-17T08:16:39.642Z,50
2018-02-17T08:17:53.541Z,50
2018-02-17T08:19:08.557Z,50
2018-02-17T08:20:23.037Z,50
2018-02-17T08:21:38.198Z,50
2018-02-17T08:22:52.725Z,50
2018-02-17T08:24:07.206Z,50
2018-02-17T08:25:21.476Z,55
2018-02-17T08:26:36.735Z,55
2018-02-17T08:27:51.320Z,55
2018-02-17T08:29:05.735Z,55
2018-02-17T08:30:21.060Z,55
2018-02-17T08:31:36.141Z,55
2018-02-17T08:32:51.160Z,55
2018-02-17T08:34:06.529Z,55
2018-02-17T08:35:21.080Z,55
2018-02-17T08:36:35.814Z,60
2018-02-17T08:37:50.890Z,60
2018-02-17T08:39:05.405Z,60
2018-02-17T08:40:19.946Z,60
2018-02-17T08:41:35.035Z,60
2018-02-17T08:42:49.474Z,60
2018-02-17T08:44:04.470Z,60
2018-02-17T08:45:19.237Z,60
2018-02-17T08:46:34.258Z,60
2018-02-17T08:47:49.072Z,60
2018-02-17T08:49:04.074Z,60
2018-02-17T08:50:18.678Z,60
2018-02-17T08:51:33.636Z,60
2018-02-17T08:52:48.073Z,60
2018-02-17T08:54:03.183Z,60
2018-02-17T08:55:17.400Z,60
2018-02-17T08:56:31.885Z,60
2018-02-17T08:57:47.178Z,60
2018-02-17T08:59:01.639Z,60
2018-02-17T09:00:16.112Z,60
2018-02-17T09:01:31.171Z,65
2018-02-17T09:02:46.452Z,65
2018-02-17T09:04:00.793Z,70
2018-02-17T09:05:15.530Z,75
2018-02-17T09:06:30.576Z,75
2018-02-17T09:07:46.249Z,75
2018-02-17T09:09:01.483Z,75
2018-02-17T09:10:15.681Z,80
2018-02-17T09:11:30.197Z,80
2018-02-17T09:12:44.416Z,80
2018-02-17T09:14:00.232Z,75
2018-02-17T09:15:14.996Z,75
2018-02-17T09:16:29.499Z,75
2018-02-17T09:17:43.994Z,75
2018-02-17T09:18:58.779Z,75
2018-02-17T09:20:13.751Z,75
2018-02-17T09:21:28.595Z,75
2018-02-17T09:22:43.381Z,75
2018-02-17T09:23:57.865Z,75
2018-02-17T09:25:13.179Z,75
2018-02-17T09:26:27.970Z,75
2018-02-17T09:27:43.308Z,75
2018-02-17T09:28:58.071Z,75
2018-02-17T09:30:12.862Z,80
2018-02-17T09:31:27.762Z,85
2018-02-17T09:32:42.298Z,85
2018-02-17T09:33:57.706Z,85
2018-02-17T09:35:12.191Z,85
2018-02-17T09:36:26.223Z,85
2018-02-17T09:37:41.323Z,85
2018-02-17T09:38:55.836Z,85
2018-02-17T09:40:10.725Z,85
2018-02-17T09:41:25.315Z,85
2018-02-17T09:42:39.780Z,85
2018-02-17T09:43:54.568Z,85
2018-02-17T09:45:09.372Z,85
2018-02-17T09:46:24.196Z,85
2018-02-17T09:47:39.065Z,85
2018-02-17T09:48:53.288Z,85
2018-02-17T09:50:08.442Z,85
2018-02-17T09:51:23.011Z,85
2018-02-17T09:52:37.816Z,85
2018-02-17T09:53:52.811Z,85
2018-02-17T09:55:06.825Z,85
2018-02-17T09:56:21.350Z,85
2018-02-17T09:57:36.355Z,85
2018-02-17T09:58:51.659Z,85
2018-02-17T10:00:06.361Z,90
2018-02-17T10:01:20.427Z,90
2018-02-17T10:02:34.424Z,90
2018-02-17T10:03:49.185Z,90
2018-02-17T10:05:03.884Z,90
2018-02-17T10:06:18.315Z,90
2018-02-17T10:07:33.409Z,90
2018-02-17T10:08:48.435Z,90
2018-02-17T10:10:02.658Z,90
2018-02-17T10:11:17.580Z,90
2018-02-17T10:12:32.136Z,90
2018-02-17T10:13:47.135Z,90
2018-02-17T10:15:01.923Z,90
2018-02-17T10:16:16.278Z,85
2018-02-17T10:17:31.436Z,85
2018-02-17T10:18:46.463Z,85
2018-02-17T10:20:01.503Z,85
2018-02-17T10:21:16.332Z,85
2018-02-17T10:22:31.068Z,80
2018-02-17T10:23:45.878Z,80
2018-02-17T10:25:00.585Z,80
2018-02-17T10:26:15.560Z,80
2018-02-17T10:27:30.626Z,80
2018-02-17T10:28:45.209Z,80
2018-02-17T10:29:59.811Z,80
2018-02-17T10:31:14.285Z,80
2018-02-17T10:32:29.403Z,80
2018-02-17T10:33:44.099Z,85
2018-02-17T10:34:59.252Z,85
2018-02-17T10:36:14.254Z,90
2018-02-17T10:37:29.303Z,90
2018-02-17T10:38:44.469Z,90
2018-02-17T10:39:58.765Z,95
2018-02-17T10:41:13.682Z,95
2018-02-17T10:42:29.270Z,95
2018-02-17T10:43:44.427Z,100
2018-02-17T10:44:59.256Z,100
2018-02-17T10:46:14.442Z,100
2018-02-17T10:47:28.755Z,100
2018-02-17T10:48:44.188Z,100
2018-02-17T10:49:59.281Z,100
2018-02-17T10:51:14.456Z,100
2018-02-17T10:52:29.570Z,100
2018-02-17T10:53:44.479Z,100
2018-02-17T10:54:59.060Z,100
2018-02-17T10:56:14.057Z,105
2018-02-17T10:57:28.819Z,105
2018-02-17T10:58:42.813Z,105
2018-02-17T10:59:57.583Z,110
2018-02-17T11:01:12.630Z,110
2018-02-17T11:02:27.219Z,110
2018-02-17T11:03:54.969Z,110
2018-02-17T11:05:09.956Z,110
2018-02-17T11:06:24.486Z,110
2018-02-17T11:07:38.991Z,110
2018-02-17T11:08:53.582Z,110
2018-02-17T11:10:07.877Z,110
2018-02-17T11:11:22.703Z,110
2018-02-17T11:12:37.528Z,110
2018-02-17T11:13:52.611Z,110
2018-02-17T11:15:07.432Z,110
2018-02-17T11:16:22.295Z,105
2018-02-17T11:17:37.635Z,105
2018-02-17T11:18:52.092Z,105
2018-02-17T11:20:06.496Z,105
2018-02-17T11:21:21.249Z,100
2018-02-17T11:22:36.281Z,100
2018-02-17T11:23:50.953Z,100
2018-02-17T11:25:06.029Z,100
2018-02-17T11:26:20.978Z,100
2018-02-17T11:27:35.258Z,100
2018-02-17T11:28:50.186Z,100
2018-02-17T11:30:04.844Z,100
2018-02-17T11:31:19.452Z,100
2018-02-17T11:32:34.258Z,100
2018-02-17T11:33:48.897Z,95
2018-02-17T11:35:03.700Z,95
2018-02-17T11:36:18.941Z,95
2018-02-17T11:37:33.680Z,95
2018-02-17T11:38:47.758Z,95
2018-02-17T11:40:03.044Z,95
2018-02-17T11:41:17.279Z,95
2018-02-17T11:42:32.296Z,95
2018-02-17T11:43:46.791Z,95
2018-02-17T11:45:02.083Z,95
2018-02-17T11:46:17.099Z,90
2018-02-17T11:47:30.860Z,90
2018-02-17T11:48:46.306Z,95
2018-02-17T11:50:01.276Z,95
2018-02-17T11:51:16.616Z,95
2018-02-17T11:52:31.642Z,95
2018-02-17T11:53:46.539Z,95
2018-02-17T11:55:00.858Z,95
2018-02-17T11:56:15.458Z,95
2018-02-17T11:57:30.920Z,95
2018-02-17T11:58:45.517Z,95
2018-02-17T12:00:00.587Z,100
2018-02-17T12:01:15.051Z,100
2018-02-17T12:02:29.775Z,100
2018-02-17T12:03:43.980Z,100
2018-02-17T12:04:58.905Z,105
2018-02-17T12:06:12.534Z,105
2018-02-17T12:07:26.975Z,105
2018-02-17T12:08:41.433Z,110
2018-02-17T12:09:55.684Z,110
2018-02-17T12:11:10.314Z,115
2018-02-17T12:12:24.579Z,120
2018-02-17T12:13:39.069Z,120
2018-02-17T12:14:53.651Z,120
2018-02-17T12:16:07.594Z,115
2018-02-17T12:17:22.437Z,115
2018-02-17T12:18:37.126Z,115
2018-02-17T12:19:51.648Z,115
2018-02-17T12:21:06.898Z,115
2018-02-17T12:22:21.233Z,115
2018-02-17T12:23:36.292Z,115
2018-02-17T12:24:50.757Z,115
2018-02-17T12:26:05.940Z,120
2018-02-17T12:27:20.487Z,120
2018-02-17T12:28:34.888Z,125
2018-02-17T12:29:49.195Z,125
2018-02-17T12:31:03.719Z,125
2018-02-17T12:32:18.870Z,125
2018-02-17T12:33:33.253Z,125
2018-02-17T12:34:48.166Z,125
2018-02-17T12:36:02.812Z,120
2018-02-17T12:37:17.382Z,120
2018-02-17T12:38:32.066Z,120
2018-02-17T12:39:46.558Z,120
2018-02-17T12:41:45.072Z,120
2018-02-17T12:42:59.845Z,125
2018-02-17T12:44:14.596Z,125
2018-02-17T12:45:29.316Z,125
2018-02-17T12:46:44.112Z,130
2018-02-17T12:47:59.176Z,130
2018-02-17T12:49:14.005Z,130
2018-02-17T12:50:27.809Z,130
2018-02-17T12:51:42.394Z,125
2018-02-17T12:52:56.925Z,125
2018-02-17T12:54:12.353Z,120
2018-02-17T12:55:27.570Z,115
2018-02-17T12:56:42.332Z,115
2018-02-17T12:57:56.862Z,110
2018-02-17T12:59:11.181Z,115
2018-02-17T13:00:26.331Z,105
2018-02-17T13:01:41.080Z,105
2018-02-17T13:02:55.876Z,105
2018-02-17T13:04:10.569Z,105
2018-02-17T13:05:25.510Z,110
2018-02-17T13:06:40.701Z,110
2018-02-17T13:07:56.026Z,110
2018-02-17T13:09:11.000Z,110
2018-02-17T13:10:25.553Z,105
2018-02-17T13:11:40.841Z,105
2018-02-17T13:12:57.423Z,100
2018-02-17T13:14:12.773Z,100
2018-02-17T13:15:27.958Z,95
2018-02-17T13:16:42.539Z,95
2018-02-17T13:17:57.134Z,95
2018-02-17T13:19:12.325Z,95
2018-02-17T13:20:37.791Z,100
2018-02-17T13:21:52.306Z,100
2018-02-17T13:23:07.094Z,100
2018-02-17T13:24:21.258Z,100
2018-02-17T13:25:36.566Z,100
2018-02-17T13:26:51.429Z,100
2018-02-17T13:28:06.224Z,105
2018-02-17T13:29:21.004Z,100
2018-02-17T13:30:35.560Z,100
2018-02-17T13:31:50.921Z,100
2018-02-17T13:33:05.770Z,105
2018-02-17T13:34:21.030Z,105
2018-02-17T13:35:35.922Z,110
2018-02-17T13:36:50.597Z,110
2018-02-17T13:38:06.029Z,110
2018-02-17T13:39:21.289Z,110
2018-02-17T13:40:35.882Z,110
2018-02-17T13:41:50.715Z,110
2018-02-17T13:43:04.943Z,110
2018-02-17T13:44:19.100Z,110
2018-02-17T13:45:33.367Z,110
2018-02-17T13:47:08.448Z,110
2018-02-17T13:48:23.467Z,105
2018-02-17T13:49:38.107Z,100
2018-02-17T13:50:52.478Z,100
2018-02-17T13:52:07.863Z,95
2018-02-17T13:53:22.325Z,95
2018-02-17T13:54:36.758Z,90
2018-02-17T13:55:51.229Z,90
2018-02-17T13:57:06.018Z,85
2018-02-17T13:58:21.110Z,80
2018-02-17T13:59:36.421Z,75
2018-02-17T14:00:51.189Z,75
2018-02-17T14:02:06.210Z,70
2018-02-17T14:03:20.770Z,65
2018-02-17T14:04:36.103Z,65
2018-02-17T14:05:50.761Z,65
2018-02-17T14:07:05.276Z,65
2018-02-17T14:08:19.266Z,65
2018-02-17T14:09:34.042Z,65
2018-02-17T14:10:48.835Z,65
2018-02-17T14:12:03.950Z,65
2018-02-17T14:13:18.247Z,65
2018-02-17T14:14:32.547Z,65
2018-02-17T14:15:47.349Z,65
2018-02-17T14:17:02.101Z,65
2018-02-17T14:18:17.106Z,65
2018-02-17T14:19:42.284Z,65
2018-02-17T14:20:56.532Z,65
2018-02-17T14:22:11.411Z,65
2018-02-17T14:23:25.737Z,70
2018-02-17T14:24:41.146Z,70
2018-02-17T14:25:56.283Z,70
2018-02-17T14:27:11.203Z,70
2018-02-17T14:28:25.964Z,65
2018-02-17T14:29:40.675Z,65
2018-02-17T14:30:55.916Z,65
2018-02-17T14:32:10.920Z,65
2018-02-17T14:33:25.374Z,60
2018-02-17T14:34:40.628Z,60
2018-02-17T14:35:55.341Z,55
2018-02-17T14:37:10.368Z,55
2018-02-17T14:38:26.026Z,50
2018-02-17T14:39:40.554Z,50
2018-02-17T14:40:55.307Z,50
2018-02-17T14:42:09.720Z,45
2018-02-17T14:43:23.906Z,45
2018-02-17T14:44:39.281Z,45
2018-02-17T14:45:53.779Z,45
2018-02-17T14:47:08.582Z,45
2018-02-17T14:48:23.070Z,45
2018-02-17T14:49:37.411Z,45
2018-02-17T14:50:52.688Z,45
2018-02-17T14:52:17.733Z,40
2018-02-17T14:53:32.541Z,40
2018-02-17T14:54:47.892Z,40
2018-02-17T14:56:02.422Z,40
2018-02-17T14:57:17.445Z,40
2018-02-17T14:58:33.039Z,40
2018-02-17T14:59:47.934Z,45
2018-02-17T15:01:03.330Z,45
2018-02-17T15:02:18.133Z,50
2018-02-17T15:03:32.132Z,50
2018-02-17T15:04:46.475Z,55
2018-02-17T15:06:00.719Z,60
2018-02-17T15:07:15.248Z,60
2018-02-17T15:08:29.558Z,60
2018-02-17T15:09:44.181Z,60
2018-02-17T15:10:59.536Z,60
2018-02-17T15:12:13.539Z,60
2018-02-17T15:13:28.647Z,60
2018-02-17T15:14:43.639Z,60
2018-02-17T15:15:58.442Z,60
2018-02-17T15:17:13.554Z,60
2018-02-17T15:18:28.082Z,60
2018-02-17T15:19:43.319Z,55
2018-02-17T15:20:58.085Z,55
2018-02-17T15:22:12.082Z,55
2018-02-17T15:23:27.965Z,50
2018-02-17T15:25:04.827Z,50
2018-02-17T15:26:18.851Z,50
2018-02-17T15:27:33.848Z,45
2018-02-17T15:28:48.596Z,45
2018-02-17T15:30:03.186Z,45
2018-02-17T15:31:18.541Z,40
2018-02-17T15:32:33.124Z,40
2018-02-17T15:33:48.179Z,35
2018-02-17T15:35:03.147Z,35
2018-02-17T15:36:17.867Z,35
2018-02-17T15:37:32.660Z,30
2018-02-17T15:38:47.513Z,30
2018-02-17T15:40:02.350Z,30
2018-02-17T15:41:16.259Z,30
2018-02-17T15:42:30.151Z,30
2018-02-17T15:43:45.224Z,30
2018-02-17T15:45:00.625Z,30
2018-02-17T15:46:15.216Z,30
2018-02-17T15:47:30.246Z,25
2018-02-17T15:48:44.229Z,25
2018-02-17T15:49:59.185Z,25
2018-02-17T15:51:13.962Z,25
2018-02-17T15:52:28.508Z,25
2018-02-17T15:53:43.276Z,25
2018-02-17T15:54:58.202Z,25
2018-02-17T15:56:13.609Z,25
2018-02-17T15:57:28.346Z,25
2018-02-17T15:58:43.385Z,25
2018-02-17T15:59:57.865Z,25
2018-02-17T16:01:12.802Z,25
2018-02-17T16:02:27.829Z,25
2018-02-17T16:03:42.604Z,25
2018-02-17T16:04:57.738Z,25
2018-02-17T16:06:12.345Z,25
2018-02-17T16:07:27.082Z,20
2018-02-17T16:08:42.106Z,20
2018-02-17T16:09:56.947Z,20
2018-02-17T16:11:11.321Z,20
2018-02-17T16:12:26.386Z,20
2018-02-17T16:13:41.409Z,20
2018-02-17T16:14:57.114Z,15
2018-02-17T16:16:11.639Z,15
2018-02-17T16:17:25.862Z,15
2018-02-17T16:18:40.887Z,15
2018-02-17T16:19:55.524Z,15
2018-02-17T16:21:10.622Z,15
2018-02-17T16:22:25.113Z,10
2018-02-17T16:23:40.042Z,10
2018-02-17T16:24:55.108Z,10
2018-02-17T16:26:09.500Z,10
2018-02-17T16:27:24.257Z,10
2018-02-17T16:28:39.077Z,10
2018-02-17T16:29:54.057Z,10
2018-02-17T16:31:08.918Z,5
2018-02-17T16:32:23.952Z,5
2018-02-17T16:33:39.033Z,5
2018-02-17T16:34:54.094Z,5
2018-02-17T16:36:09.146Z,5
2018-02-17T16:37:23.960Z,5
2018-02-17T16:38:38.976Z,5
2018-02-17T16:39:53.396Z,0
2018-02-17T16:41:08.364Z,0
2018-02-17T16:42:22.427Z,0
2018-02-17T16:43:36.691Z,0
2018-02-17T16:44:52.335Z,0
2018-02-17T16:46:06.647Z,0
2018-02-17T16:47:22.151Z,0
2018-02-17T16:48:37.230Z,0
2018-02-17T16:49:51.469Z,0
2018-02-17T16:51:05.893Z,0
2018-02-17T16:52:21.313Z,0
2018-02-17T16:53:36.091Z,0
2018-02-17T16:54:50.815Z,0
2018-02-17T16:56:05.535Z,0
2018-02-17T16:57:20.541Z,0
2018-02-17T16:58:35.619Z,0
2018-02-17T16:59:50.376Z,0
2018-02-17T17:01:04.657Z,0
2018-02-17T17:02:20.194Z,0
2018-02-17T17:03:35.015Z,0
2018-02-17T17:04:50.315Z,0
2018-02-17T17:06:04.627Z,0
2018-02-17T17:07:19.076Z,0
2018-02-17T17:08:33.925Z,0
2018-02-17T17:09:48.656Z,0
2018-02-17T17:11:04.187Z,0
2018-02-17T17:12:19.600Z,0
2018-02-17T17:13:33.750Z,0
2018-02-17T17:14:48.563Z,0
2018-02-17T17:16:03.493Z,0
2018-02-17T17:17:19.064Z,0
2018-02-17T17:18:34.304Z,0
2018-02-17T17:19:48.813Z,0
2018-02-17T17:21:03.090Z,0
2018-02-17T17:22:17.947Z,0
2018-02-17T17:23:32.848Z,0
2018-02-17T17:24:47.635Z,0
2018-02-17T17:26:02.137Z,0
2018-02-17T17:27:16.784Z,0
2018-02-17T17:28:31.820Z,0
2018-02-17T17:29:47.415Z,0
2018-02-17T17:31:02.727Z,0
2018-02-17T17:32:17.953Z,0
2018-02-17T17:33:32.390Z,0
2018-02-17T17:35:00.248Z,0
2018-02-17T17:36:16.528Z,0
2018-02-17T17:37:30.323Z,0
2018-02-17T17:38:44.811Z,0
2018-02-17T17:39:58.835Z,0
2018-02-17T17:41:13.838Z,0
2018-02-17T17:42:29.221Z,0
2018-02-17T17:43:43.959Z,0
2018-02-17T17:44:58.773Z,0
2018-02-17T17:46:14.062Z,0
2018-02-17T17:47:28.441Z,0
2018-02-17T17:48:43.473Z,0
2018-02-17T17:49:58.053Z,0
2018-02-17T17:51:12.875Z,0
2018-02-17T17:52:27.749Z,0
2018-02-17T17:53:42.777Z,0
2018-02-17T17:54:57.784Z,0
2018-02-17T17:56:12.565Z,0
2018-02-17T17:57:27.239Z,0
2018-02-17T17:58:42.524Z,0
2018-02-17T17:59:57.661Z,0
2018-02-17T18:01:12.254Z,0
2018-02-17T18:02:26.157Z,0